Adams, Minnesota
Current Conditions -  °F | °C
As of 11:16 AM on Thursday 18 Dec 2014 (Local Time) from KAUM Reporting Station
Light Snow Light Snow  
Wind Chill: 18°   Ceiling: 1200
Heat Index: 18°   Visibility: 1.7mi
Dew Point: 14°   Wind: 0mph
Humidity: 86%   Direction: NA
Pressure: 30.27"   Gusts: NA
Location:  43.57°N, 92.72°W
Report Text: KAUM 181716Z AUTO 00000KT 1 3/4SM -SN OVC012 M08/M10 A3027 RMK AO2 VIS 1V5
Loading
Personal Weather Stations






























Interactive Weather Map New forecast layout! Learn more

10-Day Weather Forecast

Advertisements
Track Severe Weather on mobile